Pioche, Nevada Weather observations

Data are for observation ending at time listed.
 Day   Time    Ave.   Ave.  Ave.  Vector   Max.   Stn.    Total    Solar   Ave.  
  of    of     Air    Rel.  Wind   Wind    Wind   Baro.  Precip.   Rad.    Soil  
Year   Day     Temp.  Hum.  Speed  Dir.    Gust   Pres.                    Temp. 
2016   (PST)    F      %     mph   deg.    mph     mb.     in.     W/m2     F   
------------------------------------------------------------------------------
 273    5:20   50.9    81    0.8   211      2.1   826.0    0.00       0    68.6
 273    5:30   50.8    82    0.0    84      1.2   826.1    0.00       1    68.6
 273    5:40   52.3    78    2.6   125      4.5   826.1    0.00       5    68.5
 273    5:50   54.2    72    2.6   108      4.2   826.2    0.00      11    68.4
 273    6:00   53.4    77    2.4    86      4.6   826.3    0.00      12    68.4
 273    6:10   52.3    80    0.4    14      2.3   826.4    0.00      13    68.3
 273    6:20   51.9    79    0.4    76      1.9   826.5    0.00      16    68.3
 273    6:30   51.7    79    1.3    82      4.3   826.6    0.00      21    68.2
 273    6:40   53.1    76    3.5    98      6.5   826.7    0.00      58    68.2
 273    6:50   56.3    69    4.2   122      6.6   826.7    0.00     155    68.1
 273    7:00   58.4    65    6.0   128      9.2   826.8    0.00     243    68.1
 273    7:10   58.7    64    4.8   151      8.7   826.9    0.00     180    68.1
 273    7:20   60.0    61    6.8   146     11.5   826.9    0.00     334    68.0
 273    7:30   60.2    61    6.8   150     11.8   826.9    0.00     337    68.0
 273    7:40   60.9    60    6.3   144     10.6   826.9    0.00     404    68.0
 273    7:50   60.8    59    7.6   137     11.9   827.0    0.00     439    67.9
 273    8:00   60.9    59    7.5   139     11.0   827.1    0.00     374    67.9
 273    8:10   61.3    58    6.9   142     10.1   827.1    0.00     495    67.8
 273    8:20   61.9    57    7.1   137     11.1   827.2    0.00     527    67.8
 273    8:30   62.6    55    6.3   147     10.4   827.2    0.00     557    67.7
 273    8:40   63.9    53    5.1   146      9.7   827.2    0.00     589    67.7
 273    8:50   64.6    51    6.8   132     12.9   827.3    0.00     637    67.7
 273    9:00   65.0    50    5.7   150     11.9   827.3    0.00     665    67.7
 273    9:10   65.0    50    7.2   150     11.8   827.3    0.00     708    67.6
 273    9:20   66.0    48    6.5   146     12.0   827.3    0.00     759    67.6
 273    9:30   65.5    48    8.7   135     13.6   827.3    0.00     759    67.6
 273    9:40   65.6    48    7.9   139     13.9   827.2    0.00     746    67.6
 273    9:50   66.3    46    8.4   132     14.4   827.2    0.00     764    67.5
 273   10:00   67.2    44    6.5   139     12.4   827.1    0.00     776    67.5
 273   10:10   67.5    43    7.0   147     14.5   827.0    0.00     792    67.5
 273   10:20   67.6    41    7.5   128     15.4   826.9    0.00     809    67.5
 273   10:30   68.5    40    7.7   111     14.5   826.8    0.00     837    67.5
 273   10:40   69.4    38    8.2   127     15.4   826.7    0.00     905    67.5
 273   10:50   69.2    38    7.8   138     19.6   826.5    0.00     644    67.5
 273   11:00   67.2    40   11.9   137     19.9   826.6    0.00     151    67.6
 273   11:10   65.5    46   11.0   139     17.5   826.6    0.00     208    67.5
 273   11:20   64.3    51    7.5   148     14.4   826.6    0.00     330    67.6
 273   11:30   66.3    45    6.2   134     16.7   826.4    0.00     430    67.6
 273   11:40   68.1    39    9.8   135     16.8   826.3    0.00     719    67.7
 273   11:50   68.9    36   10.7   134     21.1   826.3    0.00     570    67.7
 273   12:00   67.9    36   10.5   145     16.9   826.3    0.00     490    67.8
 273   12:10   68.5    35   10.0   136     18.7   826.2    0.00     634    67.9
 273   12:20   68.3    38   10.4   141     22.4   826.1    0.00     465    67.9
 273   12:30   66.5    40   11.3   150     18.6   826.1    0.00     287    68.0
 273   12:40   66.0    39   10.7   156     19.0   826.0    0.00     286    68.0
 273   12:50   66.4    37    9.2   158     17.0   825.9    0.00     214    68.1
 273   13:00   65.8    40    8.6   156     16.9   825.9    0.00     175    68.2
 273   13:10   66.1    39   10.6   149     16.5   825.8    0.00     221    68.2
 273   13:20   67.0    35   10.6   144     18.0   825.7    0.00     272    68.3
 273   13:30   66.3    38   10.7   148     18.0   825.8    0.00     184    68.3
 273   13:40   66.0    40   11.1   152     18.7   825.8    0.00     151    68.4
 273   13:50   65.2    43   11.3   150     16.6   825.8    0.00     206    68.5
 273   14:00   65.9    40    9.8   142     14.7   825.7    0.00     214    68.5
 273   14:10   66.2    39    9.6   146     15.1   825.7    0.00     205    68.6
 273   14:20   66.3    39    7.7   155     14.8   825.7    0.00     159    68.7
 273   14:30   66.2    40    6.0   170      9.6   825.6    0.00     130    68.7
 273   14:40   66.3    41    6.0   163     11.5   825.5    0.00     147    68.8
 273   14:50   66.6    37    6.2   155     11.2   825.4    0.00     209    68.8
 273   15:00   67.5    36    5.8   159     10.1   825.3    0.00     221    68.9
 273   15:10   67.7    34    6.8   143      9.2   825.3    0.00     214    68.9
 273   15:20   68.2    35    6.9   142      9.9   825.2    0.00     229    68.9
 273   15:30   68.5    34    6.6   145     11.5   825.1    0.00     184    69.0
 273   15:40   69.1    32    8.0   139     12.9   825.0    0.00     399    69.0
 273   15:50   70.0    32    6.1   155     10.7   825.0    0.00     358    69.1
 273   16:00   69.4    33    7.6   149     13.4   825.0    0.00     249    69.1
 273   16:10   68.7    34    7.4   141     12.4   825.0    0.00      62    69.2
 273   16:20   68.0    36    4.6   150     11.2   825.0    0.00      70    69.2
 273   16:30   68.3    36    4.8   143      8.9   825.0    0.00      61    69.2
 273   16:40   67.6    38    6.0   141     10.7   825.0    0.00      47    69.2
 273   16:50   67.1    38    4.5   149      7.2   824.9    0.00      25    69.3
 273   17:00   67.0    38    3.5   135      6.4   825.0    0.00      15    69.3
 273   17:10   66.9    39    3.9   111      7.5   825.0    0.00      11    69.3
 273   17:20   66.7    39    3.6   108      6.1   824.9    0.00       6    69.3
 273   17:30   66.4    40    3.3   105      4.7   824.9    0.00       2    69.3
 273   17:40   65.9    41    2.7    96      4.8   825.0    0.00       0    69.4
 273   17:50   65.7    40    2.9   106      5.1   825.0    0.00       0    69.4
 273   18:00   65.8    40    2.6   129      5.5   825.1    0.00       0    69.4
 273   18:10   65.2    42    3.6   152      8.5   825.2    0.00       0    69.4
 273   18:20   65.5    41    4.8   160     11.2   825.3    0.00       0    69.5
 273   18:30   65.1    43    4.1   144      9.0   825.3    0.00       0    69.5
 273   18:40   64.8    43    3.3   144      6.7   825.4    0.00       0    69.5
 273   18:50   64.6    43    2.5   136      3.9   825.5    0.00       0    69.5
 273   19:00   64.4    44    2.0   153      3.7   825.6    0.00       0    69.5
 273   19:10   63.9    44    2.5   151      3.7   825.6    0.00       0    69.5
 273   19:20   63.4    45    2.1   154      3.7   825.7    0.00       0    69.5
 273   19:30   63.4    44    2.2   148      3.9   825.7    0.00       0    69.5
 273   19:40   62.7    46    2.2   150      3.6   825.8    0.00       0    69.5
 273   19:50   62.1    46    3.1   140      4.8   825.8    0.00       0    69.5
 273   20:00   62.2    47    2.9   149      5.2   825.9    0.00       0    69.5
 273   20:10   61.5    48    4.1   144      5.9   825.9    0.00       0    69.5
 273   20:20   62.3    47    4.1   144      6.0   826.0    0.00       0    69.4
 273   20:30   63.3    46    8.3   130     13.7   826.0    0.00       0    69.5
 273   20:40   63.4    48    8.8   129     14.3   825.9    0.00       0    69.4
 273   20:50   63.2    49    8.9   135     12.9   825.9    0.00       0    69.4
 273   21:00   62.5    52    7.2   146     12.3   826.0    0.00       0    69.4
 273   21:10   61.8    54    7.3   146     11.8   826.1    0.00       0    69.4
 273   21:20   61.7    54    6.8   151     11.6   826.0    0.00       0    69.3
 273   21:30   61.6    55    6.0   165     11.0   826.0    0.00       0    69.3
 273   21:40   61.4    57    7.2   168     13.7   826.0    0.00       0    69.3
 273   21:50   61.3    57    7.0   159     12.6   826.0    0.00       0    69.3
 273   22:00   61.2    58    7.1   160     13.5   826.0    0.00       0    69.2
 273   22:10   60.9    59    6.6   164     12.6   826.0    0.00       0    69.2
 273   22:20   60.7    61    6.8   163     13.1   825.9    0.00       0    69.2
 273   22:30   60.7    62    6.3   168     12.5   825.9    0.00       0    69.1
 273   22:40   60.6    62    6.1   164     10.2   825.9    0.00       0    69.1
 273   22:50   60.4    62    6.1   169     11.7   825.9    0.00       0    69.1
 273   23:00   60.8    61    7.5   175     12.1   825.8    0.00       0    69.1
 273   23:10   60.4    62    6.3   166     10.9   825.7    0.00       0    69.0
 273   23:20   60.2    62    7.2   170     12.1   825.6    0.00       0    69.0
 273   23:30   60.2    62    5.4   160     10.2   825.6    0.00       0    69.0
 273   23:40   60.5    61    6.2   173     12.3   825.7    0.00       0    68.9
 273   23:50   60.5    61    4.7   167      8.6   825.7    0.00       0    68.9
 274    0:00   60.3    61    4.6   160      9.2   825.6    0.00       0    68.9
 274    0:10   60.0    62    3.9   160      6.6   825.6    0.00       0    68.8
 274    0:20   59.6    62    3.9   147      7.7   825.7    0.00       0    68.8
 274    0:30   59.4    63    3.0   152      6.5   825.7    0.00       0    68.8
 274    0:40   59.0    64    2.2   133      4.4   825.7    0.00       0    68.8
 274    0:50   57.9    66    3.1   116      4.4   825.7    0.00       0    68.7
 274    1:00   57.5    67    3.9   130      6.1   825.7    0.00       0    68.7
 274    1:10   57.9    66    4.5   141      8.6   825.7    0.00       0    68.7
 274    1:20   58.3    66    5.1   146      9.0   825.7    0.00       0    68.6
 274    1:30   58.4    65    4.6   147      7.2   825.7    0.00       0    68.6
 274    1:40   58.2    66    1.6   170      4.4   825.6    0.00       0    68.5
 274    1:50   57.1    68    1.0   327      3.1   825.6    0.00       0    68.5
 274    2:00   56.3    69    0.2   295      1.2   825.7    0.00       0    68.5
 274    2:10   55.4    72    0.1   355      1.0   825.7    0.00       0    68.5
 274    2:20   54.9    73    0.8   133      3.8   825.7    0.00       0    68.4
 274    2:30   55.9    70    4.0   144      5.3   825.7    0.00       0    68.4
 274    2:40   57.7    66    5.0   156      9.3   825.7    0.00       0    68.3
 274    2:50   58.0    66    4.5   149      8.4   825.7    0.00       0    68.3
 274    3:00   57.7    67    3.1   158      6.4   825.7    0.00       0    68.2
 274    3:10   57.6    68    3.7   158      7.2   825.7    0.00       0    68.2
 274    3:20   57.5    68    3.6   152      6.1   825.6    0.00       0    68.1
 274    3:30   56.7    70    2.7   169      6.6   825.8    0.00       0    68.1
 274    3:40   52.7    75    1.6   320      3.1   825.8    0.00       0    68.1
 274    3:50   51.5    78    0.0     0      0.0   825.8    0.00       0    68.1
 274    4:00   51.3    80    0.5    16      2.1   825.9    0.00       0    68.1
 274    4:10   50.7    80    0.5   296      1.8   825.8    0.00       0    68.0
 274    4:20   51.3    82    1.7   136      5.2   825.7    0.00       0    67.9
 274    4:30   55.3    76    4.1   136      6.9   825.8    0.00       0    67.9
 274    4:40   55.7    75    2.2   130      4.8   825.8    0.00       0    67.8
 274    4:50   53.5    74    0.2    56      1.8   825.9    0.00       0    67.8
 274    5:00   51.4    79    0.4   317      1.8   825.9    0.00       0    67.7
 274    5:10   51.2    82    1.9    74      5.3   825.9    0.00       0    67.7

Return to Pioche, Nevada graphs page.


Western Regional Climate Center,wrcc@dri.edu